sensor_id;sensor_type;location;lat;lon;timestamp;P1;durP1;ratioP1;P2;durP2;ratioP2
15841;SDS011;8021;48.022;11.812;2024-02-15T00:01:06;0.40;;;0.40;;
15841;SDS011;8021;48.022;11.812;2024-02-15T00:03:34;0.32;;;0.32;;
15841;SDS011;8021;48.022;11.812;2024-02-15T00:06:02;0.30;;;0.30;;
15841;SDS011;8021;48.022;11.812;2024-02-15T00:08:30;0.30;;;0.30;;
15841;SDS011;8021;48.022;11.812;2024-02-15T00:11:00;0.40;;;0.40;;
15841;SDS011;8021;48.022;11.812;2024-02-15T00:13:28;0.35;;;0.35;;
15841;SDS011;8021;48.022;11.812;2024-02-15T00:15:56;0.40;;;0.40;;
15841;SDS011;8021;48.022;11.812;2024-02-15T00:18:24;0.50;;;0.50;;
15841;SDS011;8021;48.022;11.812;2024-02-15T00:20:52;0.45;;;0.45;;
15841;SDS011;8021;48.022;11.812;2024-02-15T00:23:20;0.43;;;0.43;;
15841;SDS011;8021;48.022;11.812;2024-02-15T00:25:48;0.38;;;0.38;;
15841;SDS011;8021;48.022;11.812;2024-02-15T00:28:17;0.50;;;0.50;;
15841;SDS011;8021;48.022;11.812;2024-02-15T00:30:46;0.30;;;0.30;;
15841;SDS011;8021;48.022;11.812;2024-02-15T00:33:14;0.35;;;0.35;;
15841;SDS011;8021;48.022;11.812;2024-02-15T00:35:42;0.30;;;0.30;;
15841;SDS011;8021;48.022;11.812;2024-02-15T00:38:09;0.40;;;0.40;;
15841;SDS011;8021;48.022;11.812;2024-02-15T00:40:37;0.40;;;0.40;;
15841;SDS011;8021;48.022;11.812;2024-02-15T00:43:06;0.40;;;0.40;;
15841;SDS011;8021;48.022;11.812;2024-02-15T00:45:35;0.40;;;0.40;;
15841;SDS011;8021;48.022;11.812;2024-02-15T00:48:03;0.43;;;0.43;;
15841;SDS011;8021;48.022;11.812;2024-02-15T00:50:33;0.40;;;0.40;;
15841;SDS011;8021;48.022;11.812;2024-02-15T00:53:00;0.32;;;0.32;;
15841;SDS011;8021;48.022;11.812;2024-02-15T00:55:28;0.40;;;0.40;;
15841;SDS011;8021;48.022;11.812;2024-02-15T00:57:55;0.30;;;0.30;;
15841;SDS011;8021;48.022;11.812;2024-02-15T01:00:23;0.40;;;0.40;;
15841;SDS011;8021;48.022;11.812;2024-02-15T01:02:53;0.35;;;0.35;;
15841;SDS011;8021;48.022;11.812;2024-02-15T01:05:21;0.30;;;0.30;;
15841;SDS011;8021;48.022;11.812;2024-02-15T01:07:50;0.40;;;0.40;;
15841;SDS011;8021;48.022;11.812;2024-02-15T01:10:18;0.40;;;0.40;;
15841;SDS011;8021;48.022;11.812;2024-02-15T01:12:46;0.40;;;0.40;;
15841;SDS011;8021;48.022;11.812;2024-02-15T01:15:15;0.50;;;0.50;;
15841;SDS011;8021;48.022;11.812;2024-02-15T01:17:44;0.40;;;0.40;;
15841;SDS011;8021;48.022;11.812;2024-02-15T01:20:13;0.40;;;0.40;;
15841;SDS011;8021;48.022;11.812;2024-02-15T01:22:41;0.40;;;0.40;;
15841;SDS011;8021;48.022;11.812;2024-02-15T01:25:10;0.50;;;0.50;;
15841;SDS011;8021;48.022;11.812;2024-02-15T01:27:38;0.30;;;0.30;;
15841;SDS011;8021;48.022;11.812;2024-02-15T01:30:05;0.40;;;0.40;;
15841;SDS011;8021;48.022;11.812;2024-02-15T01:32:35;0.40;;;0.40;;
15841;SDS011;8021;48.022;11.812;2024-02-15T01:35:03;0.40;;;0.40;;
15841;SDS011;8021;48.022;11.812;2024-02-15T01:37:32;0.40;;;0.40;;
15841;SDS011;8021;48.022;11.812;2024-02-15T01:39:59;0.30;;;0.30;;
15841;SDS011;8021;48.022;11.812;2024-02-15T01:42:27;0.35;;;0.35;;
15841;SDS011;8021;48.022;11.812;2024-02-15T01:44:55;0.40;;;0.40;;
15841;SDS011;8021;48.022;11.812;2024-02-15T01:47:23;0.40;;;0.40;;
15841;SDS011;8021;48.022;11.812;2024-02-15T01:49:51;0.38;;;0.38;;
15841;SDS011;8021;48.022;11.812;2024-02-15T01:52:19;0.38;;;0.38;;
15841;SDS011;8021;48.022;11.812;2024-02-15T01:54:49;0.40;;;0.40;;
15841;SDS011;8021;48.022;11.812;2024-02-15T01:57:17;0.40;;;0.40;;
15841;SDS011;8021;48.022;11.812;2024-02-15T02:00:58;0.30;;;0.30;;
15841;SDS011;8021;48.022;11.812;2024-02-15T02:03:27;0.35;;;0.35;;
15841;SDS011;8021;48.022;11.812;2024-02-15T02:05:55;0.38;;;0.38;;
15841;SDS011;8021;48.022;11.812;2024-02-15T02:08:22;0.40;;;0.40;;
15841;SDS011;8021;48.022;11.812;2024-02-15T02:10:51;0.30;;;0.30;;
15841;SDS011;8021;48.022;11.812;2024-02-15T02:13:19;0.38;;;0.38;;
15841;SDS011;8021;48.022;11.812;2024-02-15T02:15:47;0.50;;;0.50;;
15841;SDS011;8021;48.022;11.812;2024-02-15T02:18:14;0.47;;;0.47;;
15841;SDS011;8021;48.022;11.812;2024-02-15T02:20:42;0.40;;;0.40;;
15841;SDS011;8021;48.022;11.812;2024-02-15T02:23:13;0.30;;;0.30;;
15841;SDS011;8021;48.022;11.812;2024-02-15T02:25:42;0.32;;;0.32;;
15841;SDS011;8021;48.022;11.812;2024-02-15T02:28:12;0.30;;;0.30;;
15841;SDS011;8021;48.022;11.812;2024-02-15T02:30:40;0.43;;;0.43;;
15841;SDS011;8021;48.022;11.812;2024-02-15T02:33:11;0.30;;;0.30;;
15841;SDS011;8021;48.022;11.812;2024-02-15T02:35:44;0.40;;;0.40;;
15841;SDS011;8021;48.022;11.812;2024-02-15T02:38:12;0.30;;;0.30;;
15841;SDS011;8021;48.022;11.812;2024-02-15T02:40:39;0.30;;;0.30;;
15841;SDS011;8021;48.022;11.812;2024-02-15T02:43:08;0.40;;;0.40;;
15841;SDS011;8021;48.022;11.812;2024-02-15T02:45:37;0.40;;;0.40;;
15841;SDS011;8021;48.022;11.812;2024-02-15T02:48:04;0.43;;;0.43;;
15841;SDS011;8021;48.022;11.812;2024-02-15T02:50:33;0.40;;;0.40;;
15841;SDS011;8021;48.022;11.812;2024-02-15T02:53:01;0.40;;;0.40;;
15841;SDS011;8021;48.022;11.812;2024-02-15T02:55:28;0.40;;;0.40;;
15841;SDS011;8021;48.022;11.812;2024-02-15T02:57:57;0.30;;;0.30;;
15841;SDS011;8021;48.022;11.812;2024-02-15T03:00:25;0.40;;;0.40;;
15841;SDS011;8021;48.022;11.812;2024-02-15T03:02:54;0.40;;;0.40;;
15841;SDS011;8021;48.022;11.812;2024-02-15T03:05:23;0.40;;;0.40;;
15841;SDS011;8021;48.022;11.812;2024-02-15T03:07:51;0.30;;;0.30;;
15841;SDS011;8021;48.022;11.812;2024-02-15T03:10:18;0.40;;;0.40;;
15841;SDS011;8021;48.022;11.812;2024-02-15T03:12:46;0.40;;;0.40;;
15841;SDS011;8021;48.022;11.812;2024-02-15T03:15:15;0.30;;;0.30;;
15841;SDS011;8021;48.022;11.812;2024-02-15T03:17:46;0.30;;;0.30;;
15841;SDS011;8021;48.022;11.812;2024-02-15T03:20:15;0.35;;;0.35;;
15841;SDS011;8021;48.022;11.812;2024-02-15T03:22:52;0.40;;;0.40;;
15841;SDS011;8021;48.022;11.812;2024-02-15T03:25:20;0.38;;;0.38;;
15841;SDS011;8021;48.022;11.812;2024-02-15T03:27:50;0.30;;;0.30;;
15841;SDS011;8021;48.022;11.812;2024-02-15T03:30:19;0.40;;;0.40;;
15841;SDS011;8021;48.022;11.812;2024-02-15T03:32:48;0.30;;;0.30;;
15841;SDS011;8021;48.022;11.812;2024-02-15T03:35:17;0.40;;;0.40;;
15841;SDS011;8021;48.022;11.812;2024-02-15T03:37:45;0.38;;;0.38;;
15841;SDS011;8021;48.022;11.812;2024-02-15T03:40:13;0.30;;;0.30;;
15841;SDS011;8021;48.022;11.812;2024-02-15T03:42:40;0.30;;;0.30;;
15841;SDS011;8021;48.022;11.812;2024-02-15T03:45:08;0.30;;;0.30;;
15841;SDS011;8021;48.022;11.812;2024-02-15T03:47:37;0.30;;;0.30;;
15841;SDS011;8021;48.022;11.812;2024-02-15T03:50:07;0.30;;;0.30;;
15841;SDS011;8021;48.022;11.812;2024-02-15T03:52:36;0.30;;;0.30;;
15841;SDS011;8021;48.022;11.812;2024-02-15T03:55:03;0.35;;;0.35;;
15841;SDS011;8021;48.022;11.812;2024-02-15T03:57:31;0.30;;;0.30;;
15841;SDS011;8021;48.022;11.812;2024-02-15T04:00:00;0.43;;;0.43;;
15841;SDS011;8021;48.022;11.812;2024-02-15T04:02:35;0.40;;;0.40;;
15841;SDS011;8021;48.022;11.812;2024-02-15T04:05:02;0.40;;;0.40;;
15841;SDS011;8021;48.022;11.812;2024-02-15T04:07:32;0.30;;;0.30;;
15841;SDS011;8021;48.022;11.812;2024-02-15T04:10:00;0.30;;;0.30;;
15841;SDS011;8021;48.022;11.812;2024-02-15T04:12:28;0.30;;;0.30;;
15841;SDS011;8021;48.022;11.812;2024-02-15T04:14:57;0.30;;;0.30;;
15841;SDS011;8021;48.022;11.812;2024-02-15T04:17:31;0.40;;;0.40;;
15841;SDS011;8021;48.022;11.812;2024-02-15T04:20:01;0.30;;;0.30;;
15841;SDS011;8021;48.022;11.812;2024-02-15T04:22:33;0.38;;;0.38;;
15841;SDS011;8021;48.022;11.812;2024-02-15T04:25:04;0.35;;;0.35;;
15841;SDS011;8021;48.022;11.812;2024-02-15T04:27:32;0.40;;;0.40;;
15841;SDS011;8021;48.022;11.812;2024-02-15T04:29:59;0.40;;;0.40;;
15841;SDS011;8021;48.022;11.812;2024-02-15T04:32:29;0.50;;;0.50;;
15841;SDS011;8021;48.022;11.812;2024-02-15T04:35:00;0.40;;;0.40;;
15841;SDS011;8021;48.022;11.812;2024-02-15T04:37:29;0.32;;;0.32;;
15841;SDS011;8021;48.022;11.812;2024-02-15T04:39:59;0.30;;;0.30;;
15841;SDS011;8021;48.022;11.812;2024-02-15T04:42:34;0.35;;;0.35;;
15841;SDS011;8021;48.022;11.812;2024-02-15T04:45:05;0.45;;;0.45;;
15841;SDS011;8021;48.022;11.812;2024-02-15T04:47:36;0.30;;;0.30;;
15841;SDS011;8021;48.022;11.812;2024-02-15T04:50:05;0.47;;;0.47;;
15841;SDS011;8021;48.022;11.812;2024-02-15T04:52:33;0.40;;;0.40;;
15841;SDS011;8021;48.022;11.812;2024-02-15T04:55:02;0.40;;;0.40;;
15841;SDS011;8021;48.022;11.812;2024-02-15T04:57:31;0.30;;;0.30;;
15841;SDS011;8021;48.022;11.812;2024-02-15T05:00:01;0.43;;;0.43;;
15841;SDS011;8021;48.022;11.812;2024-02-15T05:02:35;0.30;;;0.30;;
15841;SDS011;8021;48.022;11.812;2024-02-15T05:05:06;0.30;;;0.30;;
15841;SDS011;8021;48.022;11.812;2024-02-15T05:07:34;0.30;;;0.30;;
15841;SDS011;8021;48.022;11.812;2024-02-15T05:10:08;0.40;;;0.40;;
15841;SDS011;8021;48.022;11.812;2024-02-15T05:12:37;0.50;;;0.50;;
15841;SDS011;8021;48.022;11.812;2024-02-15T05:15:05;0.40;;;0.40;;
15841;SDS011;8021;48.022;11.812;2024-02-15T05:17:36;0.40;;;0.40;;
15841;SDS011;8021;48.022;11.812;2024-02-15T05:20:07;0.38;;;0.38;;
15841;SDS011;8021;48.022;11.812;2024-02-15T05:32:57;0.40;;;0.40;;
15841;SDS011;8021;48.022;11.812;2024-02-15T05:35:24;0.30;;;0.30;;
15841;SDS011;8021;48.022;11.812;2024-02-15T05:38:44;0.40;;;0.40;;
15841;SDS011;8021;48.022;11.812;2024-02-15T05:41:12;0.40;;;0.40;;
15841;SDS011;8021;48.022;11.812;2024-02-15T05:43:40;0.32;;;0.32;;
15841;SDS011;8021;48.022;11.812;2024-02-15T05:46:08;0.30;;;0.30;;
15841;SDS011;8021;48.022;11.812;2024-02-15T05:48:37;0.35;;;0.35;;
15841;SDS011;8021;48.022;11.812;2024-02-15T05:51:06;0.30;;;0.30;;
15841;SDS011;8021;48.022;11.812;2024-02-15T05:53:34;0.40;;;0.40;;
15841;SDS011;8021;48.022;11.812;2024-02-15T05:56:02;0.40;;;0.40;;
15841;SDS011;8021;48.022;11.812;2024-02-15T05:58:31;0.30;;;0.30;;
15841;SDS011;8021;48.022;11.812;2024-02-15T06:00:59;0.40;;;0.40;;
15841;SDS011;8021;48.022;11.812;2024-02-15T06:03:32;0.40;;;0.40;;
15841;SDS011;8021;48.022;11.812;2024-02-15T06:06:02;0.40;;;0.40;;
15841;SDS011;8021;48.022;11.812;2024-02-15T06:08:33;0.40;;;0.40;;
15841;SDS011;8021;48.022;11.812;2024-02-15T06:11:01;0.40;;;0.40;;
15841;SDS011;8021;48.022;11.812;2024-02-15T06:13:30;0.40;;;0.40;;
15841;SDS011;8021;48.022;11.812;2024-02-15T06:15:58;0.40;;;0.40;;
15841;SDS011;8021;48.022;11.812;2024-02-15T06:18:26;0.40;;;0.40;;
15841;SDS011;8021;48.022;11.812;2024-02-15T06:20:55;0.40;;;0.40;;
15841;SDS011;8021;48.022;11.812;2024-02-15T06:23:25;0.32;;;0.32;;
15841;SDS011;8021;48.022;11.812;2024-02-15T06:25:54;0.40;;;0.40;;
15841;SDS011;8021;48.022;11.812;2024-02-15T06:28:22;0.40;;;0.40;;
15841;SDS011;8021;48.022;11.812;2024-02-15T06:31:03;0.38;;;0.38;;
15841;SDS011;8021;48.022;11.812;2024-02-15T06:33:49;0.40;;;0.40;;
15841;SDS011;8021;48.022;11.812;2024-02-15T06:36:35;0.30;;;0.30;;
15841;SDS011;8021;48.022;11.812;2024-02-15T06:39:25;0.30;;;0.30;;
15841;SDS011;8021;48.022;11.812;2024-02-15T06:42:09;0.30;;;0.30;;
15841;SDS011;8021;48.022;11.812;2024-02-15T06:44:38;0.40;;;0.40;;
15841;SDS011;8021;48.022;11.812;2024-02-15T06:47:06;0.32;;;0.32;;
15841;SDS011;8021;48.022;11.812;2024-02-15T06:49:38;0.40;;;0.40;;
15841;SDS011;8021;48.022;11.812;2024-02-15T06:52:07;0.40;;;0.40;;
15841;SDS011;8021;48.022;11.812;2024-02-15T06:54:36;0.30;;;0.30;;
15841;SDS011;8021;48.022;11.812;2024-02-15T06:57:04;0.35;;;0.35;;
15841;SDS011;8021;48.022;11.812;2024-02-15T06:59:32;0.40;;;0.40;;
15841;SDS011;8021;48.022;11.812;2024-02-15T07:02:00;0.40;;;0.40;;
15841;SDS011;8021;48.022;11.812;2024-02-15T07:04:31;0.40;;;0.40;;
15841;SDS011;8021;48.022;11.812;2024-02-15T07:06:59;0.38;;;0.38;;
15841;SDS011;8021;48.022;11.812;2024-02-15T07:09:28;0.30;;;0.30;;
15841;SDS011;8021;48.022;11.812;2024-02-15T07:11:57;0.30;;;0.30;;
15841;SDS011;8021;48.022;11.812;2024-02-15T07:14:25;0.30;;;0.30;;
15841;SDS011;8021;48.022;11.812;2024-02-15T07:16:54;0.30;;;0.30;;
15841;SDS011;8021;48.022;11.812;2024-02-15T07:19:24;0.30;;;0.30;;
15841;SDS011;8021;48.022;11.812;2024-02-15T07:21:53;0.30;;;0.25;;
15841;SDS011;8021;48.022;11.812;2024-02-15T07:24:23;0.30;;;0.30;;
15841;SDS011;8021;48.022;11.812;2024-02-15T07:26:53;0.30;;;0.20;;
15841;SDS011;8021;48.022;11.812;2024-02-15T07:29:23;0.25;;;0.20;;
15841;SDS011;8021;48.022;11.812;2024-02-15T07:31:51;0.30;;;0.20;;
15841;SDS011;8021;48.022;11.812;2024-02-15T07:34:20;0.30;;;0.22;;
15841;SDS011;8021;48.022;11.812;2024-02-15T07:36:48;0.30;;;0.25;;
15841;SDS011;8021;48.022;11.812;2024-02-15T07:39:15;0.30;;;0.20;;
15841;SDS011;8021;48.022;11.812;2024-02-15T07:41:50;0.20;;;0.20;;
15841;SDS011;8021;48.022;11.812;2024-02-15T07:44:18;0.20;;;0.20;;
15841;SDS011;8021;48.022;11.812;2024-02-15T07:46:47;0.20;;;0.20;;
15841;SDS011;8021;48.022;11.812;2024-02-15T07:49:16;0.20;;;0.20;;
15841;SDS011;8021;48.022;11.812;2024-02-15T07:51:45;0.30;;;0.28;;
15841;SDS011;8021;48.022;11.812;2024-02-15T07:54:18;0.20;;;0.20;;
15841;SDS011;8021;48.022;11.812;2024-02-15T07:56:47;0.20;;;0.20;;
15841;SDS011;8021;48.022;11.812;2024-02-15T07:59:15;0.20;;;0.20;;
15841;SDS011;8021;48.022;11.812;2024-02-15T08:01:43;0.20;;;0.20;;
15841;SDS011;8021;48.022;11.812;2024-02-15T08:04:13;0.25;;;0.22;;
15841;SDS011;8021;48.022;11.812;2024-02-15T08:06:43;0.20;;;0.20;;
15841;SDS011;8021;48.022;11.812;2024-02-15T08:09:11;0.20;;;0.20;;
15841;SDS011;8021;48.022;11.812;2024-02-15T08:11:40;0.20;;;0.20;;
15841;SDS011;8021;48.022;11.812;2024-02-15T08:14:08;0.10;;;0.10;;
15841;SDS011;8021;48.022;11.812;2024-02-15T08:16:39;0.20;;;0.20;;
15841;SDS011;8021;48.022;11.812;2024-02-15T08:19:08;0.10;;;0.10;;
15841;SDS011;8021;48.022;11.812;2024-02-15T08:21:37;0.10;;;0.10;;
15841;SDS011;8021;48.022;11.812;2024-02-15T08:24:07;0.10;;;0.10;;
15841;SDS011;8021;48.022;11.812;2024-02-15T08:26:36;0.10;;;0.10;;
15841;SDS011;8021;48.022;11.812;2024-02-15T08:29:04;0.10;;;0.10;;
15841;SDS011;8021;48.022;11.812;2024-02-15T08:31:33;0.10;;;0.10;;
15841;SDS011;8021;48.022;11.812;2024-02-15T08:34:01;0.10;;;0.10;;
15841;SDS011;8021;48.022;11.812;2024-02-15T08:36:32;0.10;;;0.10;;
15841;SDS011;8021;48.022;11.812;2024-02-15T08:39:01;0.10;;;0.10;;
15841;SDS011;8021;48.022;11.812;2024-02-15T08:41:31;0.03;;;0.03;;
15841;SDS011;8021;48.022;11.812;2024-02-15T08:43:59;0.10;;;0.10;;
15841;SDS011;8021;48.022;11.812;2024-02-15T08:46:27;0.10;;;0.10;;
15841;SDS011;8021;48.022;11.812;2024-02-15T08:48:55;0.10;;;0.10;;
15841;SDS011;8021;48.022;11.812;2024-02-15T08:51:23;0.10;;;0.10;;
15841;SDS011;8021;48.022;11.812;2024-02-15T08:53:51;0.10;;;0.10;;
15841;SDS011;8021;48.022;11.812;2024-02-15T08:56:20;0.10;;;0.10;;
15841;SDS011;8021;48.022;11.812;2024-02-15T08:58:49;0.10;;;0.10;;
15841;SDS011;8021;48.022;11.812;2024-02-15T09:01:16;0.10;;;0.10;;
15841;SDS011;8021;48.022;11.812;2024-02-15T09:03:44;0.00;;;0.00;;
15841;SDS011;8021;48.022;11.812;2024-02-15T09:06:12;0.10;;;0.10;;
15841;SDS011;8021;48.022;11.812;2024-02-15T09:08:41;0.10;;;0.10;;
15841;SDS011;8021;48.022;11.812;2024-02-15T09:11:09;0.00;;;0.00;;
15841;SDS011;8021;48.022;11.812;2024-02-15T09:13:40;0.00;;;0.00;;
15841;SDS011;8021;48.022;11.812;2024-02-15T09:16:08;0.10;;;0.10;;
15841;SDS011;8021;48.022;11.812;2024-02-15T09:18:38;0.10;;;0.10;;
15841;SDS011;8021;48.022;11.812;2024-02-15T09:21:11;0.10;;;0.10;;
15841;SDS011;8021;48.022;11.812;2024-02-15T09:23:39;0.10;;;0.10;;
15841;SDS011;8021;48.022;11.812;2024-02-15T09:26:06;0.05;;;0.05;;
15841;SDS011;8021;48.022;11.812;2024-02-15T09:28:36;0.10;;;0.10;;
15841;SDS011;8021;48.022;11.812;2024-02-15T09:31:05;0.20;;;0.20;;
15841;SDS011;8021;48.022;11.812;2024-02-15T09:33:32;0.20;;;0.20;;
15841;SDS011;8021;48.022;11.812;2024-02-15T09:36:00;0.20;;;0.20;;
15841;SDS011;8021;48.022;11.812;2024-02-15T09:38:28;0.20;;;0.20;;
15841;SDS011;8021;48.022;11.812;2024-02-15T09:40:56;0.20;;;0.20;;
15841;SDS011;8021;48.022;11.812;2024-02-15T09:43:23;0.20;;;0.10;;
15841;SDS011;8021;48.022;11.812;2024-02-15T09:45:53;0.30;;;0.20;;
15841;SDS011;8021;48.022;11.812;2024-02-15T09:48:23;0.30;;;0.30;;
15841;SDS011;8021;48.022;11.812;2024-02-15T09:50:52;0.30;;;0.20;;
15841;SDS011;8021;48.022;11.812;2024-02-15T09:53:21;0.20;;;0.20;;
15841;SDS011;8021;48.022;11.812;2024-02-15T09:55:52;0.20;;;0.20;;
15841;SDS011;8021;48.022;11.812;2024-02-15T09:58:22;0.30;;;0.20;;
15841;SDS011;8021;48.022;11.812;2024-02-15T10:00:50;0.20;;;0.20;;
15841;SDS011;8021;48.022;11.812;2024-02-15T10:03:18;0.20;;;0.20;;
15841;SDS011;8021;48.022;11.812;2024-02-15T10:05:48;0.20;;;0.20;;
15841;SDS011;8021;48.022;11.812;2024-02-15T10:08:16;0.20;;;0.20;;
15841;SDS011;8021;48.022;11.812;2024-02-15T10:10:44;0.30;;;0.20;;
15841;SDS011;8021;48.022;11.812;2024-02-15T10:13:12;0.20;;;0.20;;
15841;SDS011;8021;48.022;11.812;2024-02-15T10:15:40;0.30;;;0.20;;
15841;SDS011;8021;48.022;11.812;2024-02-15T10:18:31;0.20;;;0.20;;
15841;SDS011;8021;48.022;11.812;2024-02-15T10:21:00;0.20;;;0.20;;
15841;SDS011;8021;48.022;11.812;2024-02-15T10:23:27;0.20;;;0.20;;
15841;SDS011;8021;48.022;11.812;2024-02-15T10:25:55;0.20;;;0.20;;
15841;SDS011;8021;48.022;11.812;2024-02-15T10:28:24;0.30;;;0.30;;
15841;SDS011;8021;48.022;11.812;2024-02-15T10:30:53;0.20;;;0.20;;
15841;SDS011;8021;48.022;11.812;2024-02-15T10:33:26;0.20;;;0.20;;
15841;SDS011;8021;48.022;11.812;2024-02-15T10:36:05;0.30;;;0.20;;
15841;SDS011;8021;48.022;11.812;2024-02-15T10:38:34;0.20;;;0.20;;
15841;SDS011;8021;48.022;11.812;2024-02-15T10:41:03;0.30;;;0.20;;
15841;SDS011;8021;48.022;11.812;2024-02-15T10:43:32;0.30;;;0.25;;
15841;SDS011;8021;48.022;11.812;2024-02-15T10:46:00;0.30;;;0.20;;
15841;SDS011;8021;48.022;11.812;2024-02-15T10:48:29;0.30;;;0.20;;
15841;SDS011;8021;48.022;11.812;2024-02-15T10:50:58;0.30;;;0.20;;
15841;SDS011;8021;48.022;11.812;2024-02-15T10:53:28;0.20;;;0.20;;
15841;SDS011;8021;48.022;11.812;2024-02-15T10:55:59;0.20;;;0.20;;
15841;SDS011;8021;48.022;11.812;2024-02-15T10:58:32;0.30;;;0.30;;
15841;SDS011;8021;48.022;11.812;2024-02-15T11:01:01;0.28;;;0.28;;
15841;SDS011;8021;48.022;11.812;2024-02-15T11:03:32;0.28;;;0.20;;
15841;SDS011;8021;48.022;11.812;2024-02-15T11:06:02;0.30;;;0.30;;
15841;SDS011;8021;48.022;11.812;2024-02-15T11:08:34;0.30;;;0.30;;
15841;SDS011;8021;48.022;11.812;2024-02-15T11:11:02;0.30;;;0.22;;
15841;SDS011;8021;48.022;11.812;2024-02-15T11:13:31;0.20;;;0.20;;
15841;SDS011;8021;48.022;11.812;2024-02-15T11:15:59;0.30;;;0.20;;
15841;SDS011;8021;48.022;11.812;2024-02-15T11:21:52;0.20;;;0.20;;
15841;SDS011;8021;48.022;11.812;2024-02-15T11:27:04;0.30;;;0.30;;
15841;SDS011;8021;48.022;11.812;2024-02-15T11:29:49;0.20;;;0.20;;
15841;SDS011;8021;48.022;11.812;2024-02-15T11:32:36;0.20;;;0.20;;
15841;SDS011;8021;48.022;11.812;2024-02-15T11:35:07;0.30;;;0.20;;
15841;SDS011;8021;48.022;11.812;2024-02-15T11:37:55;0.30;;;0.20;;
15841;SDS011;8021;48.022;11.812;2024-02-15T11:40:25;0.20;;;0.20;;
15841;SDS011;8021;48.022;11.812;2024-02-15T11:42:55;0.22;;;0.20;;
15841;SDS011;8021;48.022;11.812;2024-02-15T11:45:25;0.30;;;0.22;;
15841;SDS011;8021;48.022;11.812;2024-02-15T11:47:53;0.20;;;0.20;;
15841;SDS011;8021;48.022;11.812;2024-02-15T11:50:22;0.20;;;0.20;;
15841;SDS011;8021;48.022;11.812;2024-02-15T11:52:51;0.30;;;0.20;;
15841;SDS011;8021;48.022;11.812;2024-02-15T11:55:19;0.30;;;0.20;;
15841;SDS011;8021;48.022;11.812;2024-02-15T11:57:58;0.22;;;0.20;;
15841;SDS011;8021;48.022;11.812;2024-02-15T12:00:31;0.30;;;0.20;;
15841;SDS011;8021;48.022;11.812;2024-02-15T12:03:17;0.30;;;0.20;;
15841;SDS011;8021;48.022;11.812;2024-02-15T12:06:03;0.30;;;0.30;;
15841;SDS011;8021;48.022;11.812;2024-02-15T12:08:49;0.22;;;0.20;;
15841;SDS011;8021;48.022;11.812;2024-02-15T12:11:35;0.30;;;0.20;;
15841;SDS011;8021;48.022;11.812;2024-02-15T12:14:22;0.30;;;0.22;;
15841;SDS011;8021;48.022;11.812;2024-02-15T12:17:08;0.20;;;0.20;;
15841;SDS011;8021;48.022;11.812;2024-02-15T12:19:54;0.20;;;0.20;;
15841;SDS011;8021;48.022;11.812;2024-02-15T12:22:23;0.30;;;0.20;;
15841;SDS011;8021;48.022;11.812;2024-02-15T12:24:53;0.30;;;0.20;;
15841;SDS011;8021;48.022;11.812;2024-02-15T12:27:21;0.25;;;0.20;;
15841;SDS011;8021;48.022;11.812;2024-02-15T12:29:53;0.28;;;0.20;;
15841;SDS011;8021;48.022;11.812;2024-02-15T12:32:21;0.20;;;0.20;;
15841;SDS011;8021;48.022;11.812;2024-02-15T12:34:49;0.20;;;0.20;;
15841;SDS011;8021;48.022;11.812;2024-02-15T12:37:18;0.20;;;0.20;;
15841;SDS011;8021;48.022;11.812;2024-02-15T12:39:47;0.25;;;0.20;;
15841;SDS011;8021;48.022;11.812;2024-02-15T12:42:15;0.20;;;0.20;;
15841;SDS011;8021;48.022;11.812;2024-02-15T12:44:44;0.30;;;0.20;;
15841;SDS011;8021;48.022;11.812;2024-02-15T12:47:21;0.20;;;0.20;;
15841;SDS011;8021;48.022;11.812;2024-02-15T12:49:49;0.30;;;0.30;;
15841;SDS011;8021;48.022;11.812;2024-02-15T12:52:34;0.30;;;0.20;;
15841;SDS011;8021;48.022;11.812;2024-02-15T12:55:09;0.20;;;0.20;;
15841;SDS011;8021;48.022;11.812;2024-02-15T12:57:37;0.30;;;0.25;;
15841;SDS011;8021;48.022;11.812;2024-02-15T13:00:07;0.30;;;0.30;;
15841;SDS011;8021;48.022;11.812;2024-02-15T13:02:39;0.25;;;0.20;;
15841;SDS011;8021;48.022;11.812;2024-02-15T13:05:07;0.30;;;0.20;;
15841;SDS011;8021;48.022;11.812;2024-02-15T13:07:35;0.20;;;0.20;;
15841;SDS011;8021;48.022;11.812;2024-02-15T13:10:03;0.22;;;0.20;;
15841;SDS011;8021;48.022;11.812;2024-02-15T13:12:33;0.30;;;0.20;;
15841;SDS011;8021;48.022;11.812;2024-02-15T13:15:02;0.22;;;0.20;;
15841;SDS011;8021;48.022;11.812;2024-02-15T13:17:31;0.20;;;0.20;;
15841;SDS011;8021;48.022;11.812;2024-02-15T13:20:01;0.20;;;0.20;;
15841;SDS011;8021;48.022;11.812;2024-02-15T13:22:37;0.30;;;0.30;;
15841;SDS011;8021;48.022;11.812;2024-02-15T13:25:05;0.30;;;0.20;;
15841;SDS011;8021;48.022;11.812;2024-02-15T13:27:35;0.30;;;0.20;;
15841;SDS011;8021;48.022;11.812;2024-02-15T13:30:05;0.20;;;0.20;;
15841;SDS011;8021;48.022;11.812;2024-02-15T13:32:35;0.20;;;0.10;;
15841;SDS011;8021;48.022;11.812;2024-02-15T13:35:06;0.30;;;0.20;;
15841;SDS011;8021;48.022;11.812;2024-02-15T13:37:40;0.30;;;0.20;;
15841;SDS011;8021;48.022;11.812;2024-02-15T13:40:09;0.30;;;0.20;;
15841;SDS011;8021;48.022;11.812;2024-02-15T13:42:42;0.20;;;0.20;;
15841;SDS011;8021;48.022;11.812;2024-02-15T13:45:13;0.20;;;0.20;;
15841;SDS011;8021;48.022;11.812;2024-02-15T13:47:41;0.20;;;0.20;;
15841;SDS011;8021;48.022;11.812;2024-02-15T13:50:13;0.30;;;0.20;;
15841;SDS011;8021;48.022;11.812;2024-02-15T13:52:41;0.28;;;0.20;;
15841;SDS011;8021;48.022;11.812;2024-02-15T13:55:11;0.20;;;0.20;;
15841;SDS011;8021;48.022;11.812;2024-02-15T13:57:40;0.30;;;0.20;;
15841;SDS011;8021;48.022;11.812;2024-02-15T14:00:08;0.30;;;0.30;;
15841;SDS011;8021;48.022;11.812;2024-02-15T14:02:40;0.30;;;0.20;;
15841;SDS011;8021;48.022;11.812;2024-02-15T14:05:09;0.30;;;0.28;;
15841;SDS011;8021;48.022;11.812;2024-02-15T14:07:39;0.30;;;0.30;;
15841;SDS011;8021;48.022;11.812;2024-02-15T14:10:07;0.30;;;0.20;;
15841;SDS011;8021;48.022;11.812;2024-02-15T14:12:34;0.22;;;0.20;;
15841;SDS011;8021;48.022;11.812;2024-02-15T14:15:02;0.28;;;0.20;;
15841;SDS011;8021;48.022;11.812;2024-02-15T14:17:31;0.20;;;0.20;;
15841;SDS011;8021;48.022;11.812;2024-02-15T14:19:59;0.30;;;0.20;;
15841;SDS011;8021;48.022;11.812;2024-02-15T14:22:27;0.20;;;0.20;;
15841;SDS011;8021;48.022;11.812;2024-02-15T14:24:57;0.20;;;0.20;;
15841;SDS011;8021;48.022;11.812;2024-02-15T14:27:24;0.30;;;0.30;;
15841;SDS011;8021;48.022;11.812;2024-02-15T14:29:52;0.20;;;0.20;;
15841;SDS011;8021;48.022;11.812;2024-02-15T14:32:37;0.30;;;0.20;;
15841;SDS011;8021;48.022;11.812;2024-02-15T14:35:30;0.20;;;0.20;;
15841;SDS011;8021;48.022;11.812;2024-02-15T14:38:01;0.30;;;0.20;;
15841;SDS011;8021;48.022;11.812;2024-02-15T14:40:33;0.20;;;0.20;;
15841;SDS011;8021;48.022;11.812;2024-02-15T14:43:04;0.22;;;0.20;;
15841;SDS011;8021;48.022;11.812;2024-02-15T14:45:32;0.30;;;0.20;;
15841;SDS011;8021;48.022;11.812;2024-02-15T14:48:01;0.20;;;0.20;;
15841;SDS011;8021;48.022;11.812;2024-02-15T14:50:30;0.20;;;0.20;;
15841;SDS011;8021;48.022;11.812;2024-02-15T14:52:58;0.30;;;0.30;;
15841;SDS011;8021;48.022;11.812;2024-02-15T14:55:26;0.20;;;0.20;;
15841;SDS011;8021;48.022;11.812;2024-02-15T14:57:56;0.30;;;0.20;;
15841;SDS011;8021;48.022;11.812;2024-02-15T15:00:29;0.30;;;0.20;;
15841;SDS011;8021;48.022;11.812;2024-02-15T15:03:03;0.28;;;0.20;;
15841;SDS011;8021;48.022;11.812;2024-02-15T15:05:31;0.30;;;0.20;;
15841;SDS011;8021;48.022;11.812;2024-02-15T15:08:17;0.20;;;0.20;;
15841;SDS011;8021;48.022;11.812;2024-02-15T15:11:02;0.20;;;0.20;;
15841;SDS011;8021;48.022;11.812;2024-02-15T15:13:49;0.20;;;0.20;;
15841;SDS011;8021;48.022;11.812;2024-02-15T15:16:18;0.20;;;0.20;;
15841;SDS011;8021;48.022;11.812;2024-02-15T15:18:47;0.20;;;0.20;;
15841;SDS011;8021;48.022;11.812;2024-02-15T15:21:16;0.20;;;0.20;;
15841;SDS011;8021;48.022;11.812;2024-02-15T15:23:43;0.20;;;0.20;;